<?xml version="1.0"?>
<gpx xmlns="http://www.topografix.com/GPX/1/1" xmlns:xsi="http://www.w3.org/2001/XMLSchema-instance" xmlns:wptx1="http://www.garmin.com/xmlschemas/WaypointExtension/v1" xmlns:gpxtrx="http://www.garmin.com/xmlschemas/GpxExtensions/v3" xmlns:gpxtpx="http://www.garmin.com/xmlschemas/TrackPointExtension/v1" xmlns:gpxx="http://www.garmin.com/xmlschemas/GpxExtensions/v3" xmlns:trp="http://www.garmin.com/xmlschemas/TripExtensions/v1" xmlns:adv="http://www.garmin.com/xmlschemas/AdventuresExtensions/v1" xmlns:prs="http://www.garmin.com/xmlschemas/PressureExtension/v1" xmlns:tmd="http://www.garmin.com/xmlschemas/TripMetaDataExtensions/v1" xmlns:vptm="http://www.garmin.com/xmlschemas/ViaPointTransportationModeExtensions/v1" xmlns:ctx="http://www.garmin.com/xmlschemas/CreationTimeExtension/v1" xmlns:gpxacc="http://www.garmin.com/xmlschemas/AccelerationExtension/v1" xmlns:gpxpx="http://www.garmin.com/xmlschemas/PowerExtension/v1" xmlns:vidx1="http://www.garmin.com/xmlschemas/VideoExtension/v1" creator="Garmin Desktop App" version="1.1" xsi:schemaLocation="http://www.topografix.com/GPX/1/1 http://www.topografix.com/GPX/1/1/gpx.xsd http://www.garmin.com/xmlschemas/WaypointExtension/v1 http://www8.garmin.com/xmlschemas/WaypointExtensionv1.xsd http://www.garmin.com/xmlschemas/TrackPointExtension/v1 http://www.garmin.com/xmlschemas/TrackPointExtensionv1.xsd http://www.garmin.com/xmlschemas/GpxExtensions/v3 http://www8.garmin.com/xmlschemas/GpxExtensionsv3.xsd http://www.garmin.com/xmlschemas/ActivityExtension/v1 http://www8.garmin.com/xmlschemas/ActivityExtensionv1.xsd http://www.garmin.com/xmlschemas/AdventuresExtensions/v1 http://www8.garmin.com/xmlschemas/AdventuresExtensionv1.xsd http://www.garmin.com/xmlschemas/PressureExtension/v1 http://www.garmin.com/xmlschemas/PressureExtensionv1.xsd http://www.garmin.com/xmlschemas/TripExtensions/v1 http://www.garmin.com/xmlschemas/TripExtensionsv1.xsd http://www.garmin.com/xmlschemas/TripMetaDataExtensions/v1 http://www.garmin.com/xmlschemas/TripMetaDataExtensionsv1.xsd http://www.garmin.com/xmlschemas/ViaPointTransportationModeExtensions/v1 http://www.garmin.com/xmlschemas/ViaPointTransportationModeExtensionsv1.xsd http://www.garmin.com/xmlschemas/CreationTimeExtension/v1 http://www.garmin.com/xmlschemas/CreationTimeExtensionsv1.xsd http://www.garmin.com/xmlschemas/AccelerationExtension/v1 http://www.garmin.com/xmlschemas/AccelerationExtensionv1.xsd http://www.garmin.com/xmlschemas/PowerExtension/v1 http://www.garmin.com/xmlschemas/PowerExtensionv1.xsd http://www.garmin.com/xmlschemas/VideoExtension/v1 http://www.garmin.com/xmlschemas/VideoExtensionv1.xsd">

  <metadata>
    <link href="http://www.garmin.com">
      <text>Garmin International</text>
    </link>
    <time>2018-02-26T07:07:00Z</time>
    <bounds maxlat="13.475000001490116" maxlon="99.628083966672421" minlat="13.419581037014723" minlon="99.547118972986937"/>
  </metadata>

  <wpt lat="13.459868151694536" lon="99.625685149803758">
    <ele>73</ele>
    <name>DragonHillsHotel</name>
    <cmt>29-MAR-14 12:43:05</cmt>
    <desc>29-MAR-14 12:43:05</desc>
    <sym>Lodging</sym>
    <type>user</type>
    <extensions>
      <gpxx:WaypointExtension>
        <gpxx:DisplayMode>SymbolAndName</gpxx:DisplayMode>
      </gpxx:WaypointExtension>
      <wptx1:WaypointExtension>
        <wptx1:DisplayMode>SymbolAndName</wptx1:DisplayMode>
      </wptx1:WaypointExtension>
    </extensions>
  </wpt>

  <trk>
    <name>Saturday 003</name>
    <extensions>
      <gpxx:TrackExtension>
        <gpxx:DisplayColor>Red</gpxx:DisplayColor>
      </gpxx:TrackExtension>
    </extensions>
    <trkseg>
      <trkpt lat="13.459935039281845" lon="99.625836024060845">
        <ele>90.019999999999996</ele>
        <time>2014-03-29T05:59:30Z</time>
      </trkpt>
      <trkpt lat="13.460280038416386" lon="99.625593032687902">
        <ele>89.540000000000006</ele>
        <time>2014-03-29T05:59:56Z</time>
      </trkpt>
      <trkpt lat="13.460104018449783" lon="99.625474009662867">
        <ele>90.5</ele>
        <time>2014-03-29T06:00:05Z</time>
      </trkpt>
      <trkpt lat="13.458186993375421" lon="99.626097036525607">
        <ele>89.060000000000002</ele>
        <time>2014-03-29T06:00:48Z</time>
      </trkpt>
      <trkpt lat="13.457628004252911" lon="99.625146025791764">
        <ele>89.060000000000002</ele>
        <time>2014-03-29T06:01:10Z</time>
      </trkpt>
      <trkpt lat="13.455273024737835" lon="99.624926000833511">
        <ele>91.939999999999998</ele>
        <time>2014-03-29T06:01:56Z</time>
      </trkpt>
      <trkpt lat="13.453390030190349" lon="99.62608496658504">
        <ele>97.230000000000004</ele>
        <time>2014-03-29T06:03:29Z</time>
      </trkpt>
      <trkpt lat="13.451499994844198" lon="99.626772031188011">
        <ele>103</ele>
        <time>2014-03-29T06:04:39Z</time>
      </trkpt>
      <trkpt lat="13.450795998796821" lon="99.625638965517282">
        <ele>104.439999999999998</ele>
        <time>2014-03-29T06:05:14Z</time>
      </trkpt>
      <trkpt lat="13.450123015791178" lon="99.625044018030167">
        <ele>106.359999999999999</ele>
        <time>2014-03-29T06:05:39Z</time>
      </trkpt>
      <trkpt lat="13.449492026120424" lon="99.625139990821481">
        <ele>108.769999999999996</ele>
        <time>2014-03-29T06:06:01Z</time>
      </trkpt>
      <trkpt lat="13.449250962585211" lon="99.625369990244508">
        <ele>109.25</ele>
        <time>2014-03-29T06:06:11Z</time>
      </trkpt>
      <trkpt lat="13.448779983446002" lon="99.625594960525632">
        <ele>104.920000000000002</ele>
        <time>2014-03-29T06:06:21Z</time>
      </trkpt>
      <trkpt lat="13.449557991698384" lon="99.627388017252088">
        <ele>102.040000000000006</ele>
        <time>2014-03-29T06:07:34Z</time>
      </trkpt>
      <trkpt lat="13.44703403301537" lon="99.628029987215996">
        <ele>102.040000000000006</ele>
        <time>2014-03-29T06:09:06Z</time>
      </trkpt>
      <trkpt lat="13.446645028889179" lon="99.628083966672421">
        <ele>98.189999999999998</ele>
        <time>2014-03-29T06:09:28Z</time>
      </trkpt>
      <trkpt lat="13.446250995621085" lon="99.627651963382959">
        <ele>97.230000000000004</ele>
        <time>2014-03-29T06:09:54Z</time>
      </trkpt>
      <trkpt lat="13.446581996977329" lon="99.626917038112879">
        <ele>98.670000000000002</ele>
        <time>2014-03-29T06:10:20Z</time>
      </trkpt>
      <trkpt lat="13.446767991408706" lon="99.626589976251125">
        <ele>99.150000000000006</ele>
        <time>2014-03-29T06:10:31Z</time>
      </trkpt>
      <trkpt lat="13.446629019454122" lon="99.624714022502303">
        <ele>101.079999999999998</ele>
        <time>2014-03-29T06:11:16Z</time>
      </trkpt>
      <trkpt lat="13.446299023926258" lon="99.623512979596853">
        <ele>102.040000000000006</ele>
        <time>2014-03-29T06:11:46Z</time>
      </trkpt>
      <trkpt lat="13.444944005459547" lon="99.623493030667305">
        <ele>101.560000000000002</ele>
        <time>2014-03-29T06:12:18Z</time>
      </trkpt>
      <trkpt lat="13.443622011691332" lon="99.621715983375907">
        <ele>104.439999999999998</ele>
        <time>2014-03-29T06:13:10Z</time>
      </trkpt>
      <trkpt lat="13.443267960101366" lon="99.621545998379588">
        <ele>104.920000000000002</ele>
        <time>2014-03-29T06:13:20Z</time>
      </trkpt>
      <trkpt lat="13.442232962697744" lon="99.621573993936181">
        <ele>105.879999999999995</ele>
        <time>2014-03-29T06:13:46Z</time>
      </trkpt>
      <trkpt lat="13.441868014633656" lon="99.620487028732896">
        <ele>107.810000000000002</ele>
        <time>2014-03-29T06:14:17Z</time>
      </trkpt>
      <trkpt lat="13.440942987799644" lon="99.620148986577988">
        <ele>109.25</ele>
        <time>2014-03-29T06:14:44Z</time>
      </trkpt>
      <trkpt lat="13.440678035840392" lon="99.619742967188358">
        <ele>109.730000000000004</ele>
        <time>2014-03-29T06:14:56Z</time>
      </trkpt>
      <trkpt lat="13.440130027011037" lon="99.618158033117652">
        <ele>113.090000000000003</ele>
        <time>2014-03-29T06:15:45Z</time>
      </trkpt>
      <trkpt lat="13.440046040341258" lon="99.617760982364416">
        <ele>113.569999999999993</ele>
        <time>2014-03-29T06:15:57Z</time>
      </trkpt>
      <trkpt lat="13.44009599648416" lon="99.616942992433906">
        <ele>114.049999999999997</ele>
        <time>2014-03-29T06:16:20Z</time>
      </trkpt>
      <trkpt lat="13.439533989876509" lon="99.615987036377192">
        <ele>115.5</ele>
        <time>2014-03-29T06:16:50Z</time>
      </trkpt>
      <trkpt lat="13.438899982720613" lon="99.615562995895743">
        <ele>114.049999999999997</ele>
        <time>2014-03-29T06:17:08Z</time>
      </trkpt>
      <trkpt lat="13.437629034742713" lon="99.61549200117588">
        <ele>118.379999999999995</ele>
        <time>2014-03-29T06:17:47Z</time>
      </trkpt>
      <trkpt lat="13.437425019219518" lon="99.615441961213946">
        <ele>118.379999999999995</ele>
        <time>2014-03-29T06:17:54Z</time>
      </trkpt>
      <trkpt lat="13.435560967773199" lon="99.614461027085781">
        <ele>124.150000000000006</ele>
        <time>2014-03-29T06:19:02Z</time>
      </trkpt>
      <trkpt lat="13.434669971466064" lon="99.614171013236046">
        <ele>126.549999999999997</ele>
        <time>2014-03-29T06:19:31Z</time>
      </trkpt>
      <trkpt lat="13.434321032837033" lon="99.613714031875134">
        <ele>127.030000000000001</ele>
        <time>2014-03-29T06:19:51Z</time>
      </trkpt>
      <trkpt lat="13.434427985921502" lon="99.613456036895514">
        <ele>126.549999999999997</ele>
        <time>2014-03-29T06:20:32Z</time>
      </trkpt>
      <trkpt lat="13.434285996481776" lon="99.613774968311191">
        <ele>127.510000000000005</ele>
        <time>2014-03-29T06:21:05Z</time>
      </trkpt>
      <trkpt lat="13.434046022593975" lon="99.61372802965343">
        <ele>128.469999999999999</ele>
        <time>2014-03-29T06:21:16Z</time>
      </trkpt>
      <trkpt lat="13.431563973426819" lon="99.612148962914944">
        <ele>131.360000000000014</ele>
        <time>2014-03-29T06:23:01Z</time>
      </trkpt>
      <trkpt lat="13.430141983553767" lon="99.611662980169058">
        <ele>135.680000000000007</ele>
        <time>2014-03-29T06:23:53Z</time>
      </trkpt>
      <trkpt lat="13.429448967799544" lon="99.611780997365713">
        <ele>135.199999999999989</ele>
        <time>2014-03-29T06:24:15Z</time>
      </trkpt>
      <trkpt lat="13.428800040856004" lon="99.611233994364738">
        <ele>138.569999999999993</ele>
        <time>2014-03-29T06:24:48Z</time>
      </trkpt>
      <trkpt lat="13.427836038172245" lon="99.611200969666243">
        <ele>140.490000000000009</ele>
        <time>2014-03-29T06:25:20Z</time>
      </trkpt>
      <trkpt lat="13.42658000998199" lon="99.60994896478951">
        <ele>144.340000000000003</ele>
        <time>2014-03-29T06:26:23Z</time>
      </trkpt>
      <trkpt lat="13.425457002595067" lon="99.609963968396187">
        <ele>147.219999999999999</ele>
        <time>2014-03-29T06:27:03Z</time>
      </trkpt>
      <trkpt lat="13.424540022388101" lon="99.609522996470332">
        <ele>150.099999999999994</ele>
        <time>2014-03-29T06:27:41Z</time>
      </trkpt>
      <trkpt lat="13.423053994774818" lon="99.609544035047293">
        <ele>151.539999999999992</ele>
        <time>2014-03-29T06:28:27Z</time>
      </trkpt>
      <trkpt lat="13.422223012894392" lon="99.608982028439641">
        <ele>153.949999999999989</ele>
        <time>2014-03-29T06:29:05Z</time>
      </trkpt>
      <trkpt lat="13.421909026801586" lon="99.608728978782892">
        <ele>154.430000000000007</ele>
        <time>2014-03-29T06:29:19Z</time>
      </trkpt>
      <trkpt lat="13.421882959082723" lon="99.607401033863425">
        <ele>159.240000000000009</ele>
        <time>2014-03-29T06:30:28Z</time>
      </trkpt>
      <trkpt lat="13.420934965834022" lon="99.607116971164942">
        <ele>159.719999999999999</ele>
        <time>2014-03-29T06:30:58Z</time>
      </trkpt>
      <trkpt lat="13.419818999245763" lon="99.604934994131327">
        <ele>166.449999999999989</ele>
        <time>2014-03-29T06:32:13Z</time>
      </trkpt>
      <trkpt lat="13.419581037014723" lon="99.604002004489303">
        <ele>167.889999999999986</ele>
        <time>2014-03-29T06:32:40Z</time>
      </trkpt>
      <trkpt lat="13.419809024780989" lon="99.602953009307384">
        <ele>171.72999999999999</ele>
        <time>2014-03-29T06:33:22Z</time>
      </trkpt>
      <trkpt lat="13.4202850330621" lon="99.602797022089362">
        <ele>177.02000000000001</ele>
        <time>2014-03-29T06:34:05Z</time>
      </trkpt>
      <trkpt lat="13.420988023281097" lon="99.602040974423289">
        <ele>192.400000000000006</ele>
        <time>2014-03-29T06:35:24Z</time>
      </trkpt>
      <trkpt lat="13.42148900963366" lon="99.601951036602259">
        <ele>199.129999999999995</ele>
        <time>2014-03-29T06:36:02Z</time>
      </trkpt>
      <trkpt lat="13.421629993245006" lon="99.60195598192513">
        <ele>200.569999999999993</ele>
        <time>2014-03-29T06:36:12Z</time>
      </trkpt>
      <trkpt lat="13.422159980982542" lon="99.602091014385223">
        <ele>186.629999999999995</ele>
        <time>2014-03-29T06:36:35Z</time>
      </trkpt>
      <trkpt lat="13.422714024782181" lon="99.601257015019655">
        <ele>182.310000000000002</ele>
        <time>2014-03-29T06:37:08Z</time>
      </trkpt>
      <trkpt lat="13.423023987561464" lon="99.601244023069739">
        <ele>182.310000000000002</ele>
        <time>2014-03-29T06:37:17Z</time>
      </trkpt>
      <trkpt lat="13.423263961449265" lon="99.601735034957528">
        <ele>181.830000000000013</ele>
        <time>2014-03-29T06:37:43Z</time>
      </trkpt>
      <trkpt lat="13.423413997516036" lon="99.601892028003931">
        <ele>177.97999999999999</ele>
        <time>2014-03-29T06:37:49Z</time>
      </trkpt>
      <trkpt lat="13.424381017684937" lon="99.601880041882396">
        <ele>177.97999999999999</ele>
        <time>2014-03-29T06:38:16Z</time>
      </trkpt>
      <trkpt lat="13.426381023600698" lon="99.603006988763809">
        <ele>167.889999999999986</ele>
        <time>2014-03-29T06:39:23Z</time>
      </trkpt>
      <trkpt lat="13.42729196883738" lon="99.604117004200816">
        <ele>156.830000000000013</ele>
        <time>2014-03-29T06:39:54Z</time>
      </trkpt>
      <trkpt lat="13.428900958970189" lon="99.604539033025503">
        <ele>157.789999999999992</ele>
        <time>2014-03-29T06:40:39Z</time>
      </trkpt>
      <trkpt lat="13.43014701269567" lon="99.604271985590458">
        <ele>152.509999999999991</ele>
        <time>2014-03-29T06:41:07Z</time>
      </trkpt>
      <trkpt lat="13.429807964712381" lon="99.603079995140433">
        <ele>159.240000000000009</ele>
        <time>2014-03-29T06:41:57Z</time>
      </trkpt>
      <trkpt lat="13.428615974262357" lon="99.602292012423277">
        <ele>164.039999999999992</ele>
        <time>2014-03-29T06:42:54Z</time>
      </trkpt>
      <trkpt lat="13.428408019244671" lon="99.601490031927824">
        <ele>180.379999999999995</ele>
        <time>2014-03-29T06:44:02Z</time>
      </trkpt>
      <trkpt lat="13.428331995382905" lon="99.600677993148565">
        <ele>189.039999999999992</ele>
        <time>2014-03-29T06:45:04Z</time>
      </trkpt>
      <trkpt lat="13.427644008770585" lon="99.600351015105844">
        <ele>194.319999999999993</ele>
        <time>2014-03-29T06:45:53Z</time>
      </trkpt>
      <trkpt lat="13.42742096632719" lon="99.600345985963941">
        <ele>195.280000000000001</ele>
        <time>2014-03-29T06:46:06Z</time>
      </trkpt>
      <trkpt lat="13.426723005250096" lon="99.60019301623106">
        <ele>190.960000000000008</ele>
        <time>2014-03-29T06:46:36Z</time>
      </trkpt>
      <trkpt lat="13.427060041576624" lon="99.599739974364638">
        <ele>196.25</ele>
        <time>2014-03-29T06:47:08Z</time>
      </trkpt>
      <trkpt lat="13.426930960267782" lon="99.599133040755987">
        <ele>204.419999999999987</ele>
        <time>2014-03-29T06:47:54Z</time>
      </trkpt>
      <trkpt lat="13.426501974463463" lon="99.598375987261534">
        <ele>208.740000000000009</ele>
        <time>2014-03-29T06:48:45Z</time>
      </trkpt>
      <trkpt lat="13.426527958363295" lon="99.59724904038012">
        <ele>205.860000000000014</ele>
        <time>2014-03-29T06:49:28Z</time>
      </trkpt>
      <trkpt lat="13.426201986148953" lon="99.596905969083309">
        <ele>209.699999999999989</ele>
        <time>2014-03-29T06:50:04Z</time>
      </trkpt>
      <trkpt lat="13.425995036959648" lon="99.595913970842957">
        <ele>207.300000000000011</ele>
        <time>2014-03-29T06:50:42Z</time>
      </trkpt>
      <trkpt lat="13.42709700576961" lon="99.596038023009896">
        <ele>205.860000000000014</ele>
        <time>2014-03-29T06:51:15Z</time>
      </trkpt>
      <trkpt lat="13.427528003230691" lon="99.595453971996903">
        <ele>208.259999999999991</ele>
        <time>2014-03-29T06:51:47Z</time>
      </trkpt>
      <trkpt lat="13.427936034277081" lon="99.594986010342836">
        <ele>208.259999999999991</ele>
        <time>2014-03-29T06:52:13Z</time>
      </trkpt>
      <trkpt lat="13.428169973194599" lon="99.59467101842165">
        <ele>206.340000000000003</ele>
        <time>2014-03-29T06:52:23Z</time>
      </trkpt>
      <trkpt lat="13.43001801520586" lon="99.594960026443005">
        <ele>203.460000000000008</ele>
        <time>2014-03-29T06:53:32Z</time>
      </trkpt>
      <trkpt lat="13.431081008166075" lon="99.595069997012615">
        <ele>193.840000000000003</ele>
        <time>2014-03-29T06:53:58Z</time>
      </trkpt>
      <trkpt lat="13.43137102201581" lon="99.595393035560846">
        <ele>193.840000000000003</ele>
        <time>2014-03-29T06:54:16Z</time>
      </trkpt>
      <trkpt lat="13.431174969300628" lon="99.596216976642609">
        <ele>191.919999999999987</ele>
        <time>2014-03-29T06:54:37Z</time>
      </trkpt>
      <trkpt lat="13.431625999510288" lon="99.596806978806853">
        <ele>193.360000000000014</ele>
        <time>2014-03-29T06:54:57Z</time>
      </trkpt>
      <trkpt lat="13.432341981679201" lon="99.596217982470989">
        <ele>203.460000000000008</ele>
        <time>2014-03-29T06:56:02Z</time>
      </trkpt>
      <trkpt lat="13.432593019679189" lon="99.595676008611917">
        <ele>203.939999999999998</ele>
        <time>2014-03-29T06:56:31Z</time>
      </trkpt>
      <trkpt lat="13.433609995990992" lon="99.595036972314119">
        <ele>206.340000000000003</ele>
        <time>2014-03-29T06:57:15Z</time>
      </trkpt>
      <trkpt lat="13.43423000536859" lon="99.595020962879062">
        <ele>202.490000000000009</ele>
        <time>2014-03-29T06:57:37Z</time>
      </trkpt>
      <trkpt lat="13.4349599853158" lon="99.598063006997108">
        <ele>180.379999999999995</ele>
        <time>2014-03-29T06:58:54Z</time>
      </trkpt>
      <trkpt lat="13.434666031971574" lon="99.599391035735607">
        <ele>164.039999999999992</ele>
        <time>2014-03-29T06:59:19Z</time>
      </trkpt>
      <trkpt lat="13.434986975044012" lon="99.600366018712521">
        <ele>157.789999999999992</ele>
        <time>2014-03-29T06:59:35Z</time>
      </trkpt>
      <trkpt lat="13.43566901050508" lon="99.600861975923181">
        <ele>156.349999999999994</ele>
        <time>2014-03-29T06:59:55Z</time>
      </trkpt>
      <trkpt lat="13.4370650164783" lon="99.600758040323853">
        <ele>164.039999999999992</ele>
        <time>2014-03-29T07:01:03Z</time>
      </trkpt>
      <trkpt lat="13.437261991202831" lon="99.600766003131866">
        <ele>160.680000000000007</ele>
        <time>2014-03-29T07:01:10Z</time>
      </trkpt>
      <trkpt lat="13.438080986961722" lon="99.6012909617275">
        <ele>160.199999999999989</ele>
        <time>2014-03-29T07:01:50Z</time>
      </trkpt>
      <trkpt lat="13.438671994954348" lon="99.602231997996569">
        <ele>150.099999999999994</ele>
        <time>2014-03-29T07:02:12Z</time>
      </trkpt>
      <trkpt lat="13.439384959638119" lon="99.602126972749829">
        <ele>154.909999999999997</ele>
        <time>2014-03-29T07:02:41Z</time>
      </trkpt>
      <trkpt lat="13.439390994608402" lon="99.602697025984526">
        <ele>151.060000000000002</ele>
        <time>2014-03-29T07:03:04Z</time>
      </trkpt>
      <trkpt lat="13.438920015469193" lon="99.603101033717394">
        <ele>146.740000000000009</ele>
        <time>2014-03-29T07:03:26Z</time>
      </trkpt>
      <trkpt lat="13.439253028482199" lon="99.60339599289">
        <ele>146.259999999999991</ele>
        <time>2014-03-29T07:03:46Z</time>
      </trkpt>
      <trkpt lat="13.439188990741968" lon="99.603689024224877">
        <ele>144.819999999999993</ele>
        <time>2014-03-29T07:03:57Z</time>
      </trkpt>
      <trkpt lat="13.438895037397742" lon="99.603364979848266">
        <ele>144.819999999999993</ele>
        <time>2014-03-29T07:04:08Z</time>
      </trkpt>
      <trkpt lat="13.439116990193725" lon="99.603006988763809">
        <ele>147.219999999999999</ele>
        <time>2014-03-29T07:04:32Z</time>
      </trkpt>
      <trkpt lat="13.439255962148309" lon="99.6032440289855">
        <ele>148.659999999999997</ele>
        <time>2014-03-29T07:04:46Z</time>
      </trkpt>
      <trkpt lat="13.439475987106562" lon="99.6036740206182">
        <ele>146.259999999999991</ele>
        <time>2014-03-29T07:05:00Z</time>
      </trkpt>
      <trkpt lat="13.439916037023067" lon="99.603795977309346">
        <ele>146.259999999999991</ele>
        <time>2014-03-29T07:05:18Z</time>
      </trkpt>
      <trkpt lat="13.440100019797683" lon="99.603893039748073">
        <ele>144.340000000000003</ele>
        <time>2014-03-29T07:05:27Z</time>
      </trkpt>
      <trkpt lat="13.439683020114899" lon="99.603791031986475">
        <ele>145.300000000000011</ele>
        <time>2014-03-29T07:05:53Z</time>
      </trkpt>
      <trkpt lat="13.439238024875522" lon="99.603178985416889">
        <ele>148.659999999999997</ele>
        <time>2014-03-29T07:06:27Z</time>
      </trkpt>
      <trkpt lat="13.439154960215092" lon="99.603027021512389">
        <ele>147.699999999999989</ele>
        <time>2014-03-29T07:06:35Z</time>
      </trkpt>
      <trkpt lat="13.43949300237" lon="99.602114986628294">
        <ele>155.389999999999986</ele>
        <time>2014-03-29T07:07:45Z</time>
      </trkpt>
      <trkpt lat="13.440252989530563" lon="99.601851962506771">
        <ele>164.039999999999992</ele>
        <time>2014-03-29T07:09:30Z</time>
      </trkpt>
      <trkpt lat="13.440365977585316" lon="99.601905019953847">
        <ele>164.039999999999992</ele>
        <time>2014-03-29T07:09:41Z</time>
      </trkpt>
      <trkpt lat="13.440748024731874" lon="99.60195598192513">
        <ele>159.240000000000009</ele>
        <time>2014-03-29T07:09:58Z</time>
      </trkpt>
      <trkpt lat="13.442231034860015" lon="99.603145038709044">
        <ele>156.349999999999994</ele>
        <time>2014-03-29T07:11:03Z</time>
      </trkpt>
      <trkpt lat="13.442751970142126" lon="99.602795010432601">
        <ele>152.030000000000001</ele>
        <time>2014-03-29T07:11:17Z</time>
      </trkpt>
      <trkpt lat="13.443844970315695" lon="99.602742036804557">
        <ele>150.580000000000013</ele>
        <time>2014-03-29T07:11:42Z</time>
      </trkpt>
      <trkpt lat="13.444205978885293" lon="99.602353032678366">
        <ele>152.030000000000001</ele>
        <time>2014-03-29T07:12:10Z</time>
      </trkpt>
      <trkpt lat="13.443858968093991" lon="99.602743964642286">
        <ele>150.580000000000013</ele>
        <time>2014-03-29T07:12:45Z</time>
      </trkpt>
      <trkpt lat="13.444200027734041" lon="99.602477001026273">
        <ele>150.580000000000013</ele>
        <time>2014-03-29T07:13:10Z</time>
      </trkpt>
      <trkpt lat="13.444045968353748" lon="99.601505035534501">
        <ele>170.77000000000001</ele>
        <time>2014-03-29T07:15:12Z</time>
      </trkpt>
      <trkpt lat="13.443883024156094" lon="99.601138997823">
        <ele>169.810000000000002</ele>
        <time>2014-03-29T07:15:35Z</time>
      </trkpt>
      <trkpt lat="13.443034021183848" lon="99.600169965997338">
        <ele>165</ele>
        <time>2014-03-29T07:16:11Z</time>
      </trkpt>
      <trkpt lat="13.442940982058644" lon="99.59924896247685">
        <ele>171.72999999999999</ele>
        <time>2014-03-29T07:17:09Z</time>
      </trkpt>
      <trkpt lat="13.441656958311796" lon="99.598276996985078">
        <ele>174.620000000000005</ele>
        <time>2014-03-29T07:18:32Z</time>
      </trkpt>
      <trkpt lat="13.441714961081743" lon="99.597947001457214">
        <ele>177.97999999999999</ele>
        <time>2014-03-29T07:18:54Z</time>
      </trkpt>
      <trkpt lat="13.441691994667053" lon="99.597709039226174">
        <ele>175.580000000000013</ele>
        <time>2014-03-29T07:19:03Z</time>
      </trkpt>
      <trkpt lat="13.441140968352556" lon="99.59735800512135">
        <ele>173.659999999999997</ele>
        <time>2014-03-29T07:19:22Z</time>
      </trkpt>
      <trkpt lat="13.441880000755191" lon="99.595412984490395">
        <ele>175.580000000000013</ele>
        <time>2014-03-29T07:20:23Z</time>
      </trkpt>
      <trkpt lat="13.443974973633885" lon="99.597306959331036">
        <ele>164.039999999999992</ele>
        <time>2014-03-29T07:22:00Z</time>
      </trkpt>
      <trkpt lat="13.441882012411952" lon="99.595407033339143">
        <ele>176.060000000000002</ele>
        <time>2014-03-29T07:24:37Z</time>
      </trkpt>
      <trkpt lat="13.443873971700668" lon="99.597161030396819">
        <ele>164.52000000000001</ele>
        <time>2014-03-29T07:25:53Z</time>
      </trkpt>
      <trkpt lat="13.44415501691401" lon="99.597748015075922">
        <ele>163.080000000000013</ele>
        <time>2014-03-29T07:26:12Z</time>
      </trkpt>
      <trkpt lat="13.444316033273935" lon="99.597971979528666">
        <ele>160.199999999999989</ele>
        <time>2014-03-29T07:26:18Z</time>
      </trkpt>
      <trkpt lat="13.44533602707088" lon="99.598414963111281">
        <ele>156.830000000000013</ele>
        <time>2014-03-29T07:26:39Z</time>
      </trkpt>
      <trkpt lat="13.445585975423455" lon="99.598870016634464">
        <ele>157.310000000000002</ele>
        <time>2014-03-29T07:26:53Z</time>
      </trkpt>
      <trkpt lat="13.445929968729615" lon="99.599330015480518">
        <ele>154.430000000000007</ele>
        <time>2014-03-29T07:27:05Z</time>
      </trkpt>
      <trkpt lat="13.447770969942212" lon="99.600174995139241">
        <ele>152.030000000000001</ele>
        <time>2014-03-29T07:27:47Z</time>
      </trkpt>
      <trkpt lat="13.448498016223311" lon="99.600728033110499">
        <ele>149.139999999999986</ele>
        <time>2014-03-29T07:28:06Z</time>
      </trkpt>
      <trkpt lat="13.449873989447951" lon="99.600858958438039">
        <ele>150.099999999999994</ele>
        <time>2014-03-29T07:28:50Z</time>
      </trkpt>
      <trkpt lat="13.45034496858716" lon="99.601068003103137">
        <ele>149.139999999999986</ele>
        <time>2014-03-29T07:29:04Z</time>
      </trkpt>
      <trkpt lat="13.451235964894295" lon="99.601961011067033">
        <ele>143.849999999999994</ele>
        <time>2014-03-29T07:29:38Z</time>
      </trkpt>
      <trkpt lat="13.450441025197506" lon="99.601215021684766">
        <ele>149.139999999999986</ele>
        <time>2014-03-29T07:30:24Z</time>
      </trkpt>
      <trkpt lat="13.453984977677464" lon="99.603344025090337">
        <ele>129.430000000000007</ele>
        <time>2014-03-29T07:32:06Z</time>
      </trkpt>
      <trkpt lat="13.454583026468754" lon="99.603231959044933">
        <ele>126.549999999999997</ele>
        <time>2014-03-29T07:32:21Z</time>
      </trkpt>
      <trkpt lat="13.454521000385284" lon="99.602776989340782">
        <ele>129.430000000000007</ele>
        <time>2014-03-29T07:32:43Z</time>
      </trkpt>
      <trkpt lat="13.455017041414976" lon="99.602430984377861">
        <ele>130.400000000000006</ele>
        <time>2014-03-29T07:33:05Z</time>
      </trkpt>
      <trkpt lat="13.455594973638654" lon="99.602714041247964">
        <ele>129.430000000000007</ele>
        <time>2014-03-29T07:33:30Z</time>
      </trkpt>
      <trkpt lat="13.455894961953163" lon="99.602697025984526">
        <ele>128.949999999999989</ele>
        <time>2014-03-29T07:33:39Z</time>
      </trkpt>
      <trkpt lat="13.456685040146112" lon="99.602138958871365">
        <ele>129.919999999999987</ele>
        <time>2014-03-29T07:34:21Z</time>
      </trkpt>
      <trkpt lat="13.457127017900348" lon="99.601871995255351">
        <ele>128.949999999999989</ele>
        <time>2014-03-29T07:34:39Z</time>
      </trkpt>
      <trkpt lat="13.457717020064592" lon="99.600442964583635">
        <ele>131.840000000000003</ele>
        <time>2014-03-29T07:35:47Z</time>
      </trkpt>
      <trkpt lat="13.457811987027526" lon="99.600174995139241">
        <ele>131.840000000000003</ele>
        <time>2014-03-29T07:36:00Z</time>
      </trkpt>
      <trkpt lat="13.458764003589749" lon="99.599494971334934">
        <ele>130.879999999999995</ele>
        <time>2014-03-29T07:36:44Z</time>
      </trkpt>
      <trkpt lat="13.459057034924626" lon="99.598629958927631">
        <ele>138.090000000000003</ele>
        <time>2014-03-29T07:37:37Z</time>
      </trkpt>
      <trkpt lat="13.459657011553645" lon="99.597933003678918">
        <ele>138.569999999999993</ele>
        <time>2014-03-29T07:38:16Z</time>
      </trkpt>
      <trkpt lat="13.460529986768961" lon="99.597752960398793">
        <ele>134.719999999999999</ele>
        <time>2014-03-29T07:38:38Z</time>
      </trkpt>
      <trkpt lat="13.461201963946223" lon="99.598060995340347">
        <ele>133.759999999999991</ele>
        <time>2014-03-29T07:38:56Z</time>
      </trkpt>
      <trkpt lat="13.461659029126167" lon="99.598092008382082">
        <ele>130.879999999999995</ele>
        <time>2014-03-29T07:39:05Z</time>
      </trkpt>
      <trkpt lat="13.462017020210624" lon="99.597885981202126">
        <ele>129.919999999999987</ele>
        <time>2014-03-29T07:39:16Z</time>
      </trkpt>
      <trkpt lat="13.462144006043673" lon="99.595954958349466">
        <ele>132.800000000000011</ele>
        <time>2014-03-29T07:40:17Z</time>
      </trkpt>
      <trkpt lat="13.462367970496416" lon="99.595945989713073">
        <ele>131.360000000000014</ele>
        <time>2014-03-29T07:40:37Z</time>
      </trkpt>
      <trkpt lat="13.461627010256052" lon="99.595860997214913">
        <ele>135.199999999999989</ele>
        <time>2014-03-29T07:41:28Z</time>
      </trkpt>
      <trkpt lat="13.461268013343215" lon="99.595227995887399">
        <ele>137.610000000000014</ele>
        <time>2014-03-29T07:41:58Z</time>
      </trkpt>
      <trkpt lat="13.460493022575974" lon="99.594201967120171">
        <ele>137.610000000000014</ele>
        <time>2014-03-29T07:42:35Z</time>
      </trkpt>
      <trkpt lat="13.458682028576732" lon="99.593969034031034">
        <ele>143.849999999999994</ele>
        <time>2014-03-29T07:43:57Z</time>
      </trkpt>
      <trkpt lat="13.458564011380076" lon="99.593588998541236">
        <ele>140.490000000000009</ele>
        <time>2014-03-29T07:44:08Z</time>
      </trkpt>
      <trkpt lat="13.457985995337367" lon="99.59314601495862">
        <ele>145.300000000000011</ele>
        <time>2014-03-29T07:44:47Z</time>
      </trkpt>
      <trkpt lat="13.457663962617517" lon="99.592433972284198">
        <ele>137.610000000000014</ele>
        <time>2014-03-29T07:45:10Z</time>
      </trkpt>
      <trkpt lat="13.457159958779812" lon="99.592515025287867">
        <ele>139.050000000000011</ele>
        <time>2014-03-29T07:45:31Z</time>
      </trkpt>
      <trkpt lat="13.457091981545091" lon="99.592518964782357">
        <ele>138.569999999999993</ele>
        <time>2014-03-29T07:45:42Z</time>
      </trkpt>
      <trkpt lat="13.457893040031195" lon="99.592353003099561">
        <ele>136.639999999999986</ele>
        <time>2014-03-29T07:46:17Z</time>
      </trkpt>
      <trkpt lat="13.458627965301275" lon="99.59177297540009">
        <ele>133.280000000000001</ele>
        <time>2014-03-29T07:46:48Z</time>
      </trkpt>
      <trkpt lat="13.458826029673219" lon="99.591846987605095">
        <ele>130.400000000000006</ele>
        <time>2014-03-29T07:47:02Z</time>
      </trkpt>
      <trkpt lat="13.458166038617492" lon="99.589861985296011">
        <ele>130.879999999999995</ele>
        <time>2014-03-29T07:47:50Z</time>
      </trkpt>
      <trkpt lat="13.457576036453247" lon="99.589196965098381">
        <ele>128.469999999999999</ele>
        <time>2014-03-29T07:48:04Z</time>
      </trkpt>
      <trkpt lat="13.455726988613605" lon="99.588481988757849">
        <ele>130.400000000000006</ele>
        <time>2014-03-29T07:48:39Z</time>
      </trkpt>
      <trkpt lat="13.454255964607" lon="99.587572971358895">
        <ele>131.840000000000003</ele>
        <time>2014-03-29T07:49:03Z</time>
      </trkpt>
      <trkpt lat="13.453513998538256" lon="99.586762022227049">
        <ele>130.879999999999995</ele>
        <time>2014-03-29T07:49:22Z</time>
      </trkpt>
      <trkpt lat="13.453534031286836" lon="99.585788967087865">
        <ele>130.400000000000006</ele>
        <time>2014-03-29T07:49:40Z</time>
      </trkpt>
      <trkpt lat="13.450759034603834" lon="99.585242969915271">
        <ele>142.889999999999986</ele>
        <time>2014-03-29T07:51:38Z</time>
      </trkpt>
      <trkpt lat="13.450875040143728" lon="99.584734020754695">
        <ele>141.449999999999989</ele>
        <time>2014-03-29T07:51:58Z</time>
      </trkpt>
      <trkpt lat="13.451241999864578" lon="99.584769979119301">
        <ele>136.639999999999986</ele>
        <time>2014-03-29T07:52:12Z</time>
      </trkpt>
      <trkpt lat="13.451665034517646" lon="99.583744034171104">
        <ele>134.719999999999999</ele>
        <time>2014-03-29T07:53:05Z</time>
      </trkpt>
      <trkpt lat="13.45161197707057" lon="99.582781959325075">
        <ele>132.319999999999993</ele>
        <time>2014-03-29T07:53:40Z</time>
      </trkpt>
      <trkpt lat="13.449878012761474" lon="99.582355991005898">
        <ele>136.159999999999997</ele>
        <time>2014-03-29T07:54:42Z</time>
      </trkpt>
      <trkpt lat="13.449680032208562" lon="99.581455020233989">
        <ele>133.759999999999991</ele>
        <time>2014-03-29T07:55:02Z</time>
      </trkpt>
      <trkpt lat="13.449179967865348" lon="99.580955961719155">
        <ele>134.719999999999999</ele>
        <time>2014-03-29T07:55:18Z</time>
      </trkpt>
      <trkpt lat="13.448016978800297" lon="99.580844985321164">
        <ele>139.050000000000011</ele>
        <time>2014-03-29T07:56:20Z</time>
      </trkpt>
      <trkpt lat="13.44716303050518" lon="99.58021298982203">
        <ele>132.319999999999993</ele>
        <time>2014-03-29T07:56:42Z</time>
      </trkpt>
      <trkpt lat="13.445931980386376" lon="99.580224975943565">
        <ele>134.240000000000009</ele>
        <time>2014-03-29T07:58:07Z</time>
      </trkpt>
      <trkpt lat="13.445776998996735" lon="99.579960023984313">
        <ele>134.240000000000009</ele>
        <time>2014-03-29T07:58:19Z</time>
      </trkpt>
      <trkpt lat="13.445545993745327" lon="99.578123968094587">
        <ele>133.280000000000001</ele>
        <time>2014-03-29T07:59:15Z</time>
      </trkpt>
      <trkpt lat="13.447538036853075" lon="99.577688025310636">
        <ele>138.090000000000003</ele>
        <time>2014-03-29T08:00:39Z</time>
      </trkpt>
      <trkpt lat="13.447770969942212" lon="99.576105019077659">
        <ele>141.449999999999989</ele>
        <time>2014-03-29T08:01:34Z</time>
      </trkpt>
      <trkpt lat="13.447814974933863" lon="99.575971998274326">
        <ele>141.449999999999989</ele>
        <time>2014-03-29T08:01:40Z</time>
      </trkpt>
      <trkpt lat="13.44739998690784" lon="99.574954016134143">
        <ele>140.969999999999999</ele>
        <time>2014-03-29T08:29:51Z</time>
      </trkpt>
      <trkpt lat="13.447580030187964" lon="99.573197001591325">
        <ele>143.849999999999994</ele>
        <time>2014-03-29T08:30:48Z</time>
      </trkpt>
      <trkpt lat="13.446700014173985" lon="99.570796005427837">
        <ele>153.469999999999999</ele>
        <time>2014-03-29T08:32:18Z</time>
      </trkpt>
      <trkpt lat="13.44639097340405" lon="99.567623035982251">
        <ele>158.27000000000001</ele>
        <time>2014-03-29T08:33:56Z</time>
      </trkpt>
      <trkpt lat="13.447150960564613" lon="99.565952019765973">
        <ele>159.240000000000009</ele>
        <time>2014-03-29T08:34:42Z</time>
      </trkpt>
      <trkpt lat="13.447336032986641" lon="99.565785974264145">
        <ele>159.240000000000009</ele>
        <time>2014-03-29T08:34:49Z</time>
      </trkpt>
      <trkpt lat="13.447447009384632" lon="99.565394036471844">
        <ele>155.870000000000005</ele>
        <time>2014-03-29T08:34:55Z</time>
      </trkpt>
      <trkpt lat="13.448547972366214" lon="99.564720969647169">
        <ele>156.830000000000013</ele>
        <time>2014-03-29T08:35:23Z</time>
      </trkpt>
      <trkpt lat="13.449285998940468" lon="99.563919994980097">
        <ele>164.039999999999992</ele>
        <time>2014-03-29T08:36:11Z</time>
      </trkpt>
      <trkpt lat="13.448841003701091" lon="99.561722008511424">
        <ele>156.349999999999994</ele>
        <time>2014-03-29T08:36:55Z</time>
      </trkpt>
      <trkpt lat="13.449018029496074" lon="99.560450976714492">
        <ele>146.259999999999991</ele>
        <time>2014-03-29T08:37:10Z</time>
      </trkpt>
      <trkpt lat="13.448565993458033" lon="99.559795008972287">
        <ele>146.740000000000009</ele>
        <time>2014-03-29T08:37:27Z</time>
      </trkpt>
      <trkpt lat="13.449621023610234" lon="99.560118969529867">
        <ele>148.659999999999997</ele>
        <time>2014-03-29T08:38:15Z</time>
      </trkpt>
      <trkpt lat="13.450787030160427" lon="99.559899028390646">
        <ele>152.990000000000009</ele>
        <time>2014-03-29T08:39:11Z</time>
      </trkpt>
      <trkpt lat="13.451509969308972" lon="99.560010004788637">
        <ele>151.060000000000002</ele>
        <time>2014-03-29T08:39:31Z</time>
      </trkpt>
      <trkpt lat="13.452052026987076" lon="99.559407010674477">
        <ele>156.830000000000013</ele>
        <time>2014-03-29T08:40:14Z</time>
      </trkpt>
      <trkpt lat="13.453583987429738" lon="99.558130027726293">
        <ele>152.509999999999991</ele>
        <time>2014-03-29T08:40:59Z</time>
      </trkpt>
      <trkpt lat="13.454643040895462" lon="99.555630963295698">
        <ele>154.909999999999997</ele>
        <time>2014-03-29T08:42:15Z</time>
      </trkpt>
      <trkpt lat="13.455194989219308" lon="99.553514029830694">
        <ele>145.780000000000001</ele>
        <time>2014-03-29T08:42:52Z</time>
      </trkpt>
      <trkpt lat="13.455059034749866" lon="99.552901983261108">
        <ele>151.060000000000002</ele>
        <time>2014-03-29T08:43:28Z</time>
      </trkpt>
      <trkpt lat="13.454916039481759" lon="99.551721978932619">
        <ele>152.030000000000001</ele>
        <time>2014-03-29T08:44:07Z</time>
      </trkpt>
      <trkpt lat="13.457385012879968" lon="99.549505971372128">
        <ele>150.580000000000013</ele>
        <time>2014-03-29T08:45:18Z</time>
      </trkpt>
      <trkpt lat="13.457758007571101" lon="99.54933900386095">
        <ele>147.219999999999999</ele>
        <time>2014-03-29T08:45:28Z</time>
      </trkpt>
      <trkpt lat="13.45777896232903" lon="99.548694016411901">
        <ele>150.580000000000013</ele>
        <time>2014-03-29T08:45:52Z</time>
      </trkpt>
      <trkpt lat="13.457822967320681" lon="99.548166040331125">
        <ele>146.740000000000009</ele>
        <time>2014-03-29T08:46:03Z</time>
      </trkpt>
      <trkpt lat="13.458603993058205" lon="99.547590035945177">
        <ele>140.969999999999999</ele>
        <time>2014-03-29T08:46:16Z</time>
      </trkpt>
      <trkpt lat="13.460946986451745" lon="99.547118972986937">
        <ele>138.090000000000003</ele>
        <time>2014-03-29T08:47:07Z</time>
      </trkpt>
      <trkpt lat="13.462341986596584" lon="99.547200025990605">
        <ele>140.009999999999991</ele>
        <time>2014-03-29T08:47:48Z</time>
      </trkpt>
      <trkpt lat="13.466727985069156" lon="99.547437988221645">
        <ele>132.800000000000011</ele>
        <time>2014-03-29T08:49:15Z</time>
      </trkpt>
      <trkpt lat="13.466634023934603" lon="99.548842962831259">
        <ele>126.069999999999993</ele>
        <time>2014-03-29T08:49:44Z</time>
      </trkpt>
      <trkpt lat="13.464839961379766" lon="99.55045597627759">
        <ele>128.469999999999999</ele>
        <time>2014-03-29T08:51:07Z</time>
      </trkpt>
      <trkpt lat="13.464707024395466" lon="99.555652001872659">
        <ele>135.680000000000007</ele>
        <time>2014-03-29T08:54:32Z</time>
      </trkpt>
      <trkpt lat="13.464706018567085" lon="99.555708998814225">
        <ele>135.680000000000007</ele>
        <time>2014-03-29T08:54:35Z</time>
      </trkpt>
      <trkpt lat="13.464825041592121" lon="99.554397985339165">
        <ele>131.840000000000003</ele>
        <time>2014-03-29T08:55:13Z</time>
      </trkpt>
      <trkpt lat="13.46607101149857" lon="99.554390022531152">
        <ele>129.430000000000007</ele>
        <time>2014-03-29T08:55:44Z</time>
      </trkpt>
      <trkpt lat="13.466223981231451" lon="99.553705975413322">
        <ele>125.109999999999999</ele>
        <time>2014-03-29T08:56:00Z</time>
      </trkpt>
      <trkpt lat="13.466531010344625" lon="99.55348301678896">
        <ele>123.670000000000002</ele>
        <time>2014-03-29T08:56:11Z</time>
      </trkpt>
      <trkpt lat="13.468663031235337" lon="99.55348301678896">
        <ele>125.109999999999999</ele>
        <time>2014-03-29T08:57:07Z</time>
      </trkpt>
      <trkpt lat="13.472390966489911" lon="99.553472036495805">
        <ele>118.379999999999995</ele>
        <time>2014-03-29T08:58:24Z</time>
      </trkpt>
      <trkpt lat="13.472683997824788" lon="99.556393967941403">
        <ele>119.340000000000003</ele>
        <time>2014-03-29T09:00:06Z</time>
      </trkpt>
      <trkpt lat="13.474458027631044" lon="99.555624006316066">
        <ele>116.939999999999998</ele>
        <time>2014-03-29T09:00:54Z</time>
      </trkpt>
      <trkpt lat="13.47464301623404" lon="99.558488018810749">
        <ele>116.939999999999998</ele>
        <time>2014-03-29T09:02:23Z</time>
      </trkpt>
      <trkpt lat="13.475000001490116" lon="99.559886958450079">
        <ele>114.049999999999997</ele>
        <time>2014-03-29T09:03:02Z</time>
      </trkpt>
      <trkpt lat="13.473909012973309" lon="99.56285297870636">
        <ele>117.900000000000006</ele>
        <time>2014-03-29T09:04:56Z</time>
      </trkpt>
      <trkpt lat="13.473059004172683" lon="99.56341196782887">
        <ele>118.379999999999995</ele>
        <time>2014-03-29T09:05:46Z</time>
      </trkpt>
      <trkpt lat="13.472469002008438" lon="99.564661039039493">
        <ele>121.260000000000005</ele>
        <time>2014-03-29T09:06:35Z</time>
      </trkpt>
      <trkpt lat="13.47041099332273" lon="99.567231014370918">
        <ele>122.709999999999994</ele>
        <time>2014-03-29T09:08:19Z</time>
      </trkpt>
      <trkpt lat="13.468763027340174" lon="99.568157969042659">
        <ele>129.919999999999987</ele>
        <time>2014-03-29T09:09:37Z</time>
      </trkpt>
      <trkpt lat="13.467332990840077" lon="99.568741014227271">
        <ele>126.549999999999997</ele>
        <time>2014-03-29T09:10:13Z</time>
      </trkpt>
      <trkpt lat="13.465924998745322" lon="99.570001987740397">
        <ele>130.879999999999995</ele>
        <time>2014-03-29T09:11:18Z</time>
      </trkpt>
      <trkpt lat="13.464139988645911" lon="99.570917962118983">
        <ele>133.280000000000001</ele>
        <time>2014-03-29T09:12:14Z</time>
      </trkpt>
      <trkpt lat="13.464109981432557" lon="99.572346992790699">
        <ele>144.340000000000003</ele>
        <time>2014-03-29T09:13:35Z</time>
      </trkpt>
      <trkpt lat="13.46349198371172" lon="99.57305601797998">
        <ele>149.139999999999986</ele>
        <time>2014-03-29T09:14:24Z</time>
      </trkpt>
      <trkpt lat="13.462205026298761" lon="99.574156980961561">
        <ele>148.659999999999997</ele>
        <time>2014-03-29T09:14:57Z</time>
      </trkpt>
      <trkpt lat="13.461745027452707" lon="99.574244990944862">
        <ele>146.259999999999991</ele>
        <time>2014-03-29T09:15:09Z</time>
      </trkpt>
      <trkpt lat="13.461574958637357" lon="99.574584038928151">
        <ele>148.659999999999997</ele>
        <time>2014-03-29T09:15:33Z</time>
      </trkpt>
      <trkpt lat="13.46097900532186" lon="99.574719993397593">
        <ele>144.819999999999993</ele>
        <time>2014-03-29T09:15:49Z</time>
      </trkpt>
      <trkpt lat="13.460429990664124" lon="99.5761529635638">
        <ele>142.409999999999997</ele>
        <time>2014-03-29T09:16:28Z</time>
      </trkpt>
      <trkpt lat="13.459696993231773" lon="99.576267041265965">
        <ele>136.639999999999986</ele>
        <time>2014-03-29T09:16:53Z</time>
      </trkpt>
      <trkpt lat="13.460692008957267" lon="99.577025016769767">
        <ele>143.370000000000005</ele>
        <time>2014-03-29T09:17:54Z</time>
      </trkpt>
      <trkpt lat="13.461271030828357" lon="99.577198019251227">
        <ele>144.819999999999993</ele>
        <time>2014-03-29T09:18:18Z</time>
      </trkpt>
      <trkpt lat="13.461071038618684" lon="99.57804199308157">
        <ele>150.099999999999994</ele>
        <time>2014-03-29T09:19:02Z</time>
      </trkpt>
      <trkpt lat="13.456469960510731" lon="99.578274004161358">
        <ele>136.639999999999986</ele>
        <time>2014-03-29T09:20:38Z</time>
      </trkpt>
      <trkpt lat="13.455574018880725" lon="99.578839028254151">
        <ele>133.759999999999991</ele>
        <time>2014-03-29T09:21:02Z</time>
      </trkpt>
      <trkpt lat="13.454838003963232" lon="99.580410970374942">
        <ele>136.639999999999986</ele>
        <time>2014-03-29T09:22:08Z</time>
      </trkpt>
      <trkpt lat="13.454772960394621" lon="99.580668965354562">
        <ele>132.800000000000011</ele>
        <time>2014-03-29T09:22:15Z</time>
      </trkpt>
      <trkpt lat="13.454890977591276" lon="99.581601032987237">
        <ele>128.949999999999989</ele>
        <time>2014-03-29T09:36:25Z</time>
      </trkpt>
      <trkpt lat="13.455207981169224" lon="99.581818040460348">
        <ele>133.280000000000001</ele>
        <time>2014-03-29T09:36:51Z</time>
      </trkpt>
      <trkpt lat="13.455029027536511" lon="99.582974994555116">
        <ele>131.840000000000003</ele>
        <time>2014-03-29T09:37:37Z</time>
      </trkpt>
      <trkpt lat="13.455015029758215" lon="99.58349802531302">
        <ele>129.430000000000007</ele>
        <time>2014-03-29T09:37:52Z</time>
      </trkpt>
      <trkpt lat="13.455560021102428" lon="99.584631007164717">
        <ele>123.670000000000002</ele>
        <time>2014-03-29T09:38:16Z</time>
      </trkpt>
      <trkpt lat="13.456067964434624" lon="99.584899982437491">
        <ele>124.150000000000006</ele>
        <time>2014-03-29T09:38:30Z</time>
      </trkpt>
      <trkpt lat="13.45629301853478" lon="99.585072984918952">
        <ele>123.189999999999998</ele>
        <time>2014-03-29T09:38:35Z</time>
      </trkpt>
      <trkpt lat="13.456527963280678" lon="99.586134972050786">
        <ele>120.780000000000001</ele>
        <time>2014-03-29T09:38:56Z</time>
      </trkpt>
      <trkpt lat="13.459795983508229" lon="99.587228978052735">
        <ele>118.859999999999999</ele>
        <time>2014-03-29T09:40:14Z</time>
      </trkpt>
      <trkpt lat="13.461664980277419" lon="99.588822964578867">
        <ele>116.939999999999998</ele>
        <time>2014-03-29T09:40:59Z</time>
      </trkpt>
      <trkpt lat="13.46372801810503" lon="99.588954979553819">
        <ele>115.5</ele>
        <time>2014-03-29T09:41:33Z</time>
      </trkpt>
      <trkpt lat="13.464077962562442" lon="99.589203000068665">
        <ele>114.049999999999997</ele>
        <time>2014-03-29T09:41:40Z</time>
      </trkpt>
      <trkpt lat="13.463318981230259" lon="99.592271028086543">
        <ele>113.569999999999993</ele>
        <time>2014-03-29T09:42:49Z</time>
      </trkpt>
      <trkpt lat="13.464341992512345" lon="99.593927962705493">
        <ele>115.980000000000004</ele>
        <time>2014-03-29T09:43:31Z</time>
      </trkpt>
      <trkpt lat="13.464893018826842" lon="99.594916021451354">
        <ele>114.049999999999997</ele>
        <time>2014-03-29T09:43:55Z</time>
      </trkpt>
      <trkpt lat="13.464221963658929" lon="99.600270967930555">
        <ele>111.170000000000002</ele>
        <time>2014-03-29T09:46:05Z</time>
      </trkpt>
      <trkpt lat="13.464048961177468" lon="99.600882008671761">
        <ele>109.730000000000004</ele>
        <time>2014-03-29T09:46:20Z</time>
      </trkpt>
      <trkpt lat="13.463617041707039" lon="99.601307976990938">
        <ele>109.730000000000004</ele>
        <time>2014-03-29T09:46:35Z</time>
      </trkpt>
      <trkpt lat="13.463792977854609" lon="99.601616011932492">
        <ele>107.810000000000002</ele>
        <time>2014-03-29T09:46:46Z</time>
      </trkpt>
      <trkpt lat="13.463287968188524" lon="99.601644007489085">
        <ele>108.290000000000006</ele>
        <time>2014-03-29T09:47:14Z</time>
      </trkpt>
      <trkpt lat="13.46168995834887" lon="99.602640029042959">
        <ele>107.810000000000002</ele>
        <time>2014-03-29T09:48:41Z</time>
      </trkpt>
      <trkpt lat="13.459846023470163" lon="99.601643001660705">
        <ele>109.25</ele>
        <time>2014-03-29T09:49:48Z</time>
      </trkpt>
      <trkpt lat="13.458214988932014" lon="99.603725988417864">
        <ele>110.209999999999994</ele>
        <time>2014-03-29T09:51:00Z</time>
      </trkpt>
      <trkpt lat="13.457261966541409" lon="99.603698998689651">
        <ele>111.650000000000006</ele>
        <time>2014-03-29T09:51:31Z</time>
      </trkpt>
      <trkpt lat="13.456231998279691" lon="99.604161009192467">
        <ele>111.170000000000002</ele>
        <time>2014-03-29T09:52:06Z</time>
      </trkpt>
      <trkpt lat="13.45661697909236" lon="99.60537001490593">
        <ele>111.650000000000006</ele>
        <time>2014-03-29T09:53:01Z</time>
      </trkpt>
      <trkpt lat="13.456147005781531" lon="99.606593018397689">
        <ele>111.170000000000002</ele>
        <time>2014-03-29T09:53:33Z</time>
      </trkpt>
      <trkpt lat="13.456860976293683" lon="99.608175018802285">
        <ele>111.170000000000002</ele>
        <time>2014-03-29T09:55:18Z</time>
      </trkpt>
      <trkpt lat="13.457926986739039" lon="99.610339980572462">
        <ele>109.25</ele>
        <time>2014-03-29T09:56:15Z</time>
      </trkpt>
      <trkpt lat="13.458339041098952" lon="99.61164303123951">
        <ele>106.359999999999999</ele>
        <time>2014-03-29T09:56:54Z</time>
      </trkpt>
      <trkpt lat="13.45674597658217" lon="99.61162299849093">
        <ele>106.840000000000003</ele>
        <time>2014-03-29T09:57:44Z</time>
      </trkpt>
      <trkpt lat="13.45721703954041" lon="99.615821996703744">
        <ele>100.599999999999994</ele>
        <time>2014-03-29T09:59:24Z</time>
      </trkpt>
      <trkpt lat="13.458220018073916" lon="99.615505998954177">
        <ele>99.150000000000006</ele>
        <time>2014-03-29T09:59:58Z</time>
      </trkpt>
      <trkpt lat="13.457619035616517" lon="99.615671960636973">
        <ele>99.629999999999995</ele>
        <time>2014-03-29T10:00:21Z</time>
      </trkpt>
      <trkpt lat="13.457578970119357" lon="99.616192979738116">
        <ele>99.629999999999995</ele>
        <time>2014-03-29T10:00:42Z</time>
      </trkpt>
      <trkpt lat="13.457470005378127" lon="99.61691097356379">
        <ele>98.670000000000002</ele>
        <time>2014-03-29T10:01:08Z</time>
      </trkpt>
      <trkpt lat="13.457245035097003" lon="99.615934984758496">
        <ele>99.629999999999995</ele>
        <time>2014-03-29T10:01:53Z</time>
      </trkpt>
      <trkpt lat="13.457476962357759" lon="99.6157499961555">
        <ele>99.629999999999995</ele>
        <time>2014-03-29T10:02:03Z</time>
      </trkpt>
      <trkpt lat="13.457648037001491" lon="99.615992987528443">
        <ele>99.629999999999995</ele>
        <time>2014-03-29T10:02:16Z</time>
      </trkpt>
      <trkpt lat="13.457524990662932" lon="99.616991020739079">
        <ele>98.189999999999998</ele>
        <time>2014-03-29T10:03:04Z</time>
      </trkpt>
      <trkpt lat="13.457634961232543" lon="99.617119012400508">
        <ele>97.709999999999994</ele>
        <time>2014-03-29T10:03:10Z</time>
      </trkpt>
      <trkpt lat="13.456940017640591" lon="99.617291009053588">
        <ele>99.150000000000006</ele>
        <time>2014-03-29T10:03:57Z</time>
      </trkpt>
      <trkpt lat="13.456785036250949" lon="99.617421012371778">
        <ele>98.189999999999998</ele>
        <time>2014-03-29T10:04:12Z</time>
      </trkpt>
      <trkpt lat="13.457286022603512" lon="99.617084981873631">
        <ele>98.189999999999998</ele>
        <time>2014-03-29T10:04:55Z</time>
      </trkpt>
      <trkpt lat="13.458239967003465" lon="99.6170399710536">
        <ele>96.75</ele>
        <time>2014-03-29T10:05:56Z</time>
      </trkpt>
      <trkpt lat="13.4593450371176" lon="99.625096991658211">
        <ele>89.540000000000006</ele>
        <time>2014-03-29T10:12:22Z</time>
      </trkpt>
      <trkpt lat="13.460271991789341" lon="99.62537401355803">
        <ele>90.019999999999996</ele>
        <time>2014-03-29T10:12:54Z</time>
      </trkpt>
      <trkpt lat="13.460357990115881" lon="99.625636031851172">
        <ele>89.540000000000006</ele>
        <time>2014-03-29T10:13:05Z</time>
      </trkpt>
      <trkpt lat="13.459921041503549" lon="99.625810040161014">
        <ele>89.540000000000006</ele>
        <time>2014-03-29T10:13:22Z</time>
      </trkpt>
      <trkpt lat="13.45994702540338" lon="99.626308009028435">
        <ele>88.099999999999994</ele>
        <time>2014-03-29T11:31:16Z</time>
      </trkpt>
    </trkseg>
  </trk>

</gpx>
